Time;durP1;ratioP1;P1;durP2;ratioP2;P2;SDS_P1;SDS_P2;PMS_P1;PMS_P2;Temp;Humidity;BMP_temperature;BMP_pressure;BME280_temperature;BME280_humidity;BME280_pressure;Samples;Min_cycle;Max_cycle;Signal;HPM_P1;HPM_P2
2023/05/18 00:01:22;;;;;;;15.57;3.50;;;12.00;63.00;;;11.32;49.62;101682.16;5026016;28;20099;-81
2023/05/18 00:03:52;;;;;;;9.50;3.17;;;11.90;62.90;;;11.31;49.18;101682.34;5026176;28;21187;-79
2023/05/18 00:06:21;;;;;;;13.23;3.50;;;11.90;62.60;;;11.28;49.32;101677.38;5027010;28;20046;-78
2023/05/18 00:08:49;;;;;;;10.82;3.30;;;11.90;62.70;;;11.26;49.00;101674.06;5027391;28;20465;-80
2023/05/18 00:11:17;;;;;;;10.68;3.08;;;11.90;62.60;;;11.23;49.49;101667.25;5026733;28;20044;-80
2023/05/18 00:13:44;;;;;;;16.15;3.28;;;11.90;62.90;;;11.22;49.81;101667.41;5029031;28;20052;-81
2023/05/18 00:16:14;;;;;;;14.70;3.55;;;11.80;62.80;;;11.23;49.58;101669.09;5031486;28;20059;-81
2023/05/18 00:18:43;;;;;;;14.73;3.53;;;11.80;62.80;;;11.22;49.67;101676.25;5045061;28;20426;-81
2023/05/18 00:21:11;;;;;;;7.13;3.00;;;11.80;62.90;;;11.22;49.89;101672.75;5026940;28;20556;-80
2023/05/18 00:23:38;;;;;;;14.07;3.47;;;11.80;63.30;;;11.22;49.94;101675.44;5028143;28;20128;-79
2023/05/18 00:26:06;;;;;;;13.98;3.45;;;11.80;63.40;;;11.20;49.88;101674.81;5028446;28;20123;-80
2023/05/18 00:28:34;;;;;;;14.70;3.83;;;11.80;63.60;;;11.18;49.85;101679.50;5027897;28;20487;-79
2023/05/18 00:31:01;;;;;;;11.38;3.80;;;11.80;63.20;;;11.16;49.61;101669.00;5026658;28;20069;-80
2023/05/18 00:33:28;;;;;;;10.63;3.30;;;11.80;63.20;;;11.13;50.01;101668.56;5028508;28;20051;-80
2023/05/18 00:35:56;;;;;;;9.32;3.00;;;11.70;63.40;;;11.11;49.74;101675.91;5026165;28;20053;-80
2023/05/18 00:38:23;;;;;;;13.32;4.45;;;11.70;63.40;;;11.10;49.85;101672.41;5036841;22;20483;-78
2023/05/18 00:40:50;;;;;;;13.60;3.78;;;11.70;63.40;;;11.10;50.16;101683.09;5022498;28;20506;-78
2023/05/18 00:43:19;;;;;;;14.57;3.65;;;11.70;63.70;;;11.07;50.45;101678.94;5021794;28;20043;-78
2023/05/18 00:45:46;;;;;;;13.40;3.33;;;11.70;64.10;;;11.04;50.24;101678.50;5039468;28;20144;-78
2023/05/18 00:48:13;;;;;;;10.75;3.10;;;11.70;64.00;;;11.02;50.31;101677.84;5017051;28;20489;-78
2023/05/18 00:50:41;;;;;;;13.82;3.15;;;11.60;64.00;;;10.99;50.56;101676.38;5023602;28;20050;-78
2023/05/18 00:53:09;;;;;;;13.90;3.78;;;11.60;64.30;;;10.96;50.71;101675.91;5006901;28;20046;-78
2023/05/18 00:55:37;;;;;;;11.35;3.30;;;11.60;64.50;;;10.92;51.00;101677.28;5018843;28;20052;-78
2023/05/18 00:58:04;;;;;;;12.95;3.63;;;11.50;64.80;;;10.87;50.93;101675.16;5032411;28;20055;-78
2023/05/18 01:00:36;;;;;;;15.30;3.97;;;11.50;64.80;;;10.84;51.08;101675.56;5027873;28;20063;-78
2023/05/18 01:03:04;;;;;;;9.35;3.60;;;11.40;64.80;;;10.79;50.98;101673.44;5015297;28;20601;-78
2023/05/18 01:05:32;;;;;;;11.90;3.70;;;11.40;65.00;;;10.76;51.13;101675.63;5022033;28;20053;-78
2023/05/18 01:08:01;;;;;;;14.88;4.10;;;11.30;65.20;;;10.72;51.27;101675.16;5031324;28;20545;-78
2023/05/18 01:10:32;;;;;;;10.55;3.28;;;11.30;65.40;;;10.67;51.38;101672.19;5022355;28;20470;-78
2023/05/18 01:13:06;;;;;;;10.00;3.40;;;11.30;65.40;;;10.64;51.55;101677.91;5008671;28;20128;-78
2023/05/18 01:15:39;;;;;;;12.55;3.42;;;11.20;65.50;;;10.60;51.63;101681.97;5019475;28;20072;-78
2023/05/18 01:18:16;;;;;;;14.20;3.97;;;11.30;65.80;;;10.57;51.73;101674.31;5037429;28;20060;-78
2023/05/18 01:20:49;;;;;;;18.23;4.25;;;11.10;66.00;;;10.53;51.83;101678.34;5020052;28;20396;-78
2023/05/18 01:23:53;;;;;;;10.82;3.53;;;11.10;66.00;;;10.48;51.67;101675.38;5012526;28;20046;-78
2023/05/18 01:26:28;;;;;;;15.38;3.72;;;11.00;65.90;;;10.45;51.98;101676.59;5028764;28;20051;-78
2023/05/18 01:28:59;;;;;;;10.07;3.83;;;11.00;66.20;;;10.41;51.98;101685.97;5044938;28;20048;-78
2023/05/18 01:31:28;;;;;;;11.82;3.55;;;11.00;66.20;;;10.39;52.16;101679.13;5049226;28;20049;-78
2023/05/18 01:33:55;;;;;;;10.70;3.58;;;10.90;66.50;;;10.35;52.26;101684.03;5010733;28;20064;-78
2023/05/18 01:36:23;;;;;;;15.90;3.83;;;10.90;66.60;;;10.31;52.46;101680.88;5021436;28;20506;-78
2023/05/18 01:38:51;;;;;;;8.88;3.00;;;10.90;66.80;;;10.26;52.49;101688.59;5036273;28;20052;-78
2023/05/18 01:41:23;;;;;;;10.00;3.33;;;10.80;66.90;;;10.25;52.42;101689.59;5028568;28;20136;-77
2023/05/18 01:44:00;;;;;;;10.98;3.47;;;10.80;67.00;;;10.23;52.67;101675.56;5026148;28;20136;-79
2023/05/18 01:46:47;;;;;;;11.30;3.58;;;10.80;67.10;;;10.20;52.55;101689.28;5033205;28;20049;-78
2023/05/18 01:49:23;;;;;;;16.38;3.63;;;10.70;67.20;;;10.16;52.83;101684.47;5020314;28;20053;-78
2023/05/18 01:51:51;;;;;;;7.85;2.90;;;10.70;67.50;;;10.13;52.88;101690.97;5015627;28;20053;-78
2023/05/18 01:54:22;;;;;;;8.65;3.50;;;10.70;67.50;;;10.10;52.89;101683.31;5026350;28;20047;-78
2023/05/18 01:56:54;;;;;;;11.10;3.45;;;10.70;67.50;;;10.07;52.98;101678.38;5026398;28;20300;-78
2023/05/18 01:59:23;;;;;;;12.15;3.40;;;10.60;67.60;;;10.04;53.18;101676.88;5019686;28;20073;-78
2023/05/18 02:01:51;;;;;;;9.88;3.33;;;10.60;67.90;;;10.01;53.18;101682.59;5024188;28;20049;-78
2023/05/18 02:04:18;;;;;;;10.70;3.80;;;10.50;67.90;;;9.99;53.04;101681.09;5030083;28;20045;-78
2023/05/18 02:06:45;;;;;;;10.35;3.38;;;10.50;67.90;;;9.96;53.24;101684.13;5025178;28;20050;-78
2023/05/18 02:09:13;;;;;;;12.00;3.83;;;10.50;68.00;;;9.91;53.13;101679.31;5020971;28;20045;-78
2023/05/18 02:11:40;;;;;;;10.10;3.28;;;10.50;68.00;;;9.89;53.19;101683.16;5033628;28;20135;-78
2023/05/18 02:14:09;;;;;;;13.60;3.95;;;10.40;68.10;;;9.86;53.15;101684.34;5036571;28;20787;-78
2023/05/18 02:16:36;;;;;;;12.77;3.53;;;10.40;68.10;;;9.85;53.45;101688.00;5020338;28;20053;-78
2023/05/18 02:19:03;;;;;;;11.82;3.88;;;10.40;68.30;;;9.82;53.39;101676.88;5019444;28;20096;-78
2023/05/18 02:21:33;;;;;;;11.10;3.90;;;10.30;68.30;;;9.79;53.56;101689.53;5029746;28;20059;-78
2023/05/18 02:24:00;;;;;;;9.68;3.72;;;10.30;68.50;;;9.77;53.58;101683.56;5035352;28;20046;-78
2023/05/18 02:26:27;;;;;;;13.82;3.55;;;10.30;68.70;;;9.74;53.71;101683.91;5013833;28;20461;-78
2023/05/18 02:28:55;;;;;;;11.82;4.13;;;10.30;68.60;;;9.72;53.78;101679.78;5022799;28;20079;-78
2023/05/18 02:31:23;;;;;;;12.13;4.15;;;10.30;68.70;;;9.70;53.77;101690.59;5027832;28;20073;-78
2023/05/18 02:33:50;;;;;;;11.25;3.75;;;10.20;68.70;;;9.68;53.76;101687.28;5030466;28;20050;-78
2023/05/18 02:36:18;;;;;;;15.45;4.15;;;10.40;69.00;;;9.65;53.78;101692.13;5025453;28;20476;-78
2023/05/18 02:38:45;;;;;;;12.05;4.03;;;10.20;68.70;;;9.64;53.84;101690.47;5037958;28;20041;-78
2023/05/18 02:41:12;;;;;;;14.43;4.10;;;10.20;68.70;;;9.62;53.88;101687.16;5027267;28;20041;-78
2023/05/18 02:43:39;;;;;;;12.52;4.43;;;10.20;68.80;;;9.60;53.82;101687.31;5031713;28;20484;-78
2023/05/18 02:46:08;;;;;;;12.02;4.50;;;10.10;68.90;;;9.59;54.01;101684.84;5026620;28;20049;-78
2023/05/18 02:48:37;;;;;;;9.02;4.40;;;10.10;69.00;;;9.55;53.75;101690.50;5033725;28;20081;-78
2023/05/18 02:51:04;;;;;;;13.48;4.35;;;10.10;69.10;;;9.53;53.98;101692.53;5021724;28;20116;-78
2023/05/18 02:53:33;;;;;;;11.50;4.30;;;10.10;69.10;;;9.51;53.85;101691.84;5028275;28;20049;-78
2023/05/18 02:56:07;;;;;;;13.15;4.13;;;10.10;69.10;;;9.50;53.95;101702.69;5023716;28;20418;-78
2023/05/18 02:58:57;;;;;;;11.30;4.55;;;10.00;69.10;;;9.48;54.09;101696.72;5013669;28;20054;-78
2023/05/18 03:01:36;;;;;;;10.02;4.22;;;10.00;69.30;;;9.45;54.21;101687.22;5025452;28;20051;-78
2023/05/18 03:04:04;;;;;;;13.07;4.60;;;10.00;69.40;;;9.43;54.23;101699.06;5038233;28;20052;-78
2023/05/18 03:06:34;;;;;;;11.65;4.43;;;9.90;69.50;;;9.40;54.14;101699.41;5020528;28;20049;-78
2023/05/18 03:09:02;;;;;;;11.65;3.92;;;9.90;69.50;;;9.38;54.38;101696.09;5028419;28;20056;-78
2023/05/18 03:11:39;;;;;;;14.48;4.78;;;9.90;69.50;;;9.35;54.25;101701.75;5029946;28;20045;-78
2023/05/18 03:14:07;;;;;;;12.65;4.60;;;9.80;69.50;;;9.33;54.28;101709.91;5021254;28;20053;-78
2023/05/18 03:16:37;;;;;;;11.35;4.80;;;9.90;69.70;;;9.32;54.37;101707.41;5020886;28;20050;-78
2023/05/18 03:19:07;;;;;;;13.15;4.90;;;9.80;69.70;;;9.29;54.56;101697.94;5027945;28;20628;-78
2023/05/18 03:21:37;;;;;;;11.48;4.20;;;9.80;69.80;;;9.27;54.53;101703.47;5029367;28;20136;-78
2023/05/18 03:24:06;;;;;;;10.88;4.50;;;9.80;69.90;;;9.25;54.33;101713.44;5044425;28;20056;-78
2023/05/18 03:26:38;;;;;;;10.02;4.47;;;9.80;69.90;;;9.23;54.62;101709.28;5029539;28;20073;-78
2023/05/18 03:29:05;;;;;;;12.52;4.47;;;9.80;69.90;;;9.22;54.55;101705.81;5052369;28;20076;-78
2023/05/18 03:31:33;;;;;;;11.52;4.30;;;9.70;69.90;;;9.19;54.59;101703.47;5035825;28;20152;-78
2023/05/18 03:34:02;;;;;;;15.02;4.75;;;9.70;70.00;;;9.18;54.80;101707.16;5024932;28;20054;-78
2023/05/18 03:36:30;;;;;;;14.30;4.75;;;9.80;70.20;;;9.17;54.84;101701.97;5010993;28;20149;-77
2023/05/18 03:38:58;;;;;;;13.30;4.40;;;9.60;70.00;;;9.15;54.81;101701.31;5034090;28;20045;-78
2023/05/18 03:41:28;;;;;;;14.00;4.68;;;9.70;70.30;;;9.13;54.79;101698.84;5046430;28;20064;-78
2023/05/18 03:43:55;;;;;;;14.30;4.68;;;9.70;70.50;;;9.12;54.99;101699.81;5030656;28;20042;-78
2023/05/18 03:46:23;;;;;;;13.23;4.95;;;9.60;70.40;;;9.10;54.91;101703.69;5019349;28;20580;-78
2023/05/18 03:48:52;;;;;;;11.93;4.65;;;9.60;70.40;;;9.08;54.89;101695.88;5028311;28;20529;-78
2023/05/18 03:51:22;;;;;;;11.15;4.70;;;9.60;70.60;;;9.08;55.04;101695.00;5019474;28;20046;-78
2023/05/18 03:53:51;;;;;;;12.07;5.35;;;9.60;70.60;;;9.06;55.25;101697.84;5014243;28;20078;-77
2023/05/18 03:56:18;;;;;;;11.60;5.03;;;9.60;70.80;;;9.05;55.40;101700.69;5007685;28;20046;-78
2023/05/18 03:58:46;;;;;;;8.82;4.30;;;9.50;70.90;;;9.04;55.49;101699.88;5027935;28;20165;-78
2023/05/18 04:01:13;;;;;;;11.65;5.03;;;9.50;70.90;;;9.03;55.67;101704.38;5019765;28;20050;-78
2023/05/18 04:03:41;;;;;;;12.55;5.03;;;9.60;71.20;;;9.02;55.64;101709.84;5029167;28;20239;-78
2023/05/18 04:06:09;;;;;;;12.60;5.10;;;9.50;71.30;;;9.01;55.76;101716.16;5021230;28;20045;-77
2023/05/18 04:08:37;;;;;;;13.45;4.95;;;9.50;71.40;;;9.01;55.81;101716.16;5020024;28;20432;-81
2023/05/18 04:11:06;;;;;;;9.50;4.90;;;9.60;71.50;;;9.01;56.01;101714.34;5020694;28;20479;-79
2023/05/18 04:13:33;;;;;;;13.90;5.00;;;9.60;71.70;;;9.03;56.00;101714.19;5016088;28;20123;-79
2023/05/18 04:16:02;;;;;;;10.30;5.05;;;9.50;71.80;;;9.03;56.37;101704.38;5022981;28;20049;-78
2023/05/18 04:18:30;;;;;;;10.05;4.70;;;9.60;72.00;;;9.05;56.69;101717.50;5027417;28;20045;-79
2023/05/18 04:20:59;;;;;;;15.00;5.20;;;9.60;72.20;;;9.06;56.81;101720.97;5023046;28;20134;-79
2023/05/18 04:23:27;;;;;;;12.45;4.95;;;9.70;72.50;;;9.08;56.78;101718.97;5017817;28;20052;-79
2023/05/18 04:25:55;;;;;;;13.20;6.18;;;9.60;72.30;;;9.11;56.68;101721.28;5015033;28;20602;-78
2023/05/18 04:28:24;;;;;;;17.45;5.90;;;9.80;72.70;;;9.12;56.70;101715.78;5028216;28;20049;-78
2023/05/18 04:30:52;;;;;;;15.40;5.78;;;9.70;72.50;;;9.15;56.71;101720.78;5029727;28;20084;-79
2023/05/18 04:33:19;;;;;;;12.38;5.78;;;9.70;72.50;;;9.17;57.03;101725.94;5020849;28;20052;-78
2023/05/18 04:35:46;;;;;;;14.70;5.90;;;9.70;72.60;;;9.20;57.12;101723.75;5030102;28;20056;-79
2023/05/18 04:38:15;;;;;;;17.73;6.43;;;9.80;73.00;;;9.23;57.09;101725.28;5024248;28;20037;-79
2023/05/18 04:40:42;;;;;;;13.05;6.20;;;9.80;72.70;;;9.27;56.82;101726.56;5024795;28;20092;-79
2023/05/18 04:43:10;;;;;;;15.40;6.45;;;9.80;72.70;;;9.28;56.64;101729.06;5019587;28;20458;-79
2023/05/18 04:45:41;;;;;;;12.52;6.05;;;9.90;72.50;;;9.33;56.83;101728.56;5017120;28;20106;-79
2023/05/18 04:48:09;;;;;;;18.80;6.47;;;9.90;72.70;;;9.42;57.30;101737.31;5025549;28;20043;-78
2023/05/18 04:50:38;;;;;;;15.15;6.90;;;10.00;73.00;;;9.52;57.11;101738.81;5035058;28;20688;-79
2023/05/18 04:53:07;;;;;;;16.33;6.68;;;10.10;73.00;;;9.63;56.90;101736.75;5018313;28;20136;-79
2023/05/18 04:55:35;;;;;;;16.17;6.10;;;10.20;72.60;;;9.72;56.89;101736.53;5015436;28;20050;-79
2023/05/18 04:58:09;;;;;;;15.45;6.50;;;10.30;72.70;;;9.84;56.49;101733.47;5016221;28;20076;-79
2023/05/18 05:00:36;;;;;;;14.18;6.18;;;10.40;72.20;;;9.97;56.30;101728.41;5036144;28;20101;-79
2023/05/18 05:03:06;;;;;;;17.63;6.97;;;10.60;72.00;;;10.08;55.74;101733.34;5016443;28;20502;-79
2023/05/18 05:05:34;;;;;;;12.15;5.97;;;10.70;71.50;;;10.21;55.68;101735.41;5016041;28;20053;-78
2023/05/18 05:08:03;;;;;;;20.20;6.97;;;10.80;71.50;;;10.31;55.48;101726.22;5023027;28;20572;-78
2023/05/18 05:10:30;;;;;;;16.52;6.68;;;10.90;71.30;;;10.45;55.43;101737.94;5027485;28;20198;-80
2023/05/18 05:12:58;;;;;;;16.48;6.43;;;11.00;71.10;;;10.57;55.17;101730.31;5021998;28;20405;-79
2023/05/18 05:15:25;;;;;;;20.20;7.47;;;11.10;70.90;;;10.68;54.80;101729.06;5022171;28;20080;-79
2023/05/18 05:17:52;;;;;;;11.27;5.97;;;11.20;70.40;;;10.80;54.89;101725.78;5024762;28;20513;-79
2023/05/18 05:20:21;;;;;;;14.68;5.97;;;11.40;70.50;;;10.94;53.99;101729.50;5035270;28;20399;-79
2023/05/18 05:22:49;;;;;;;17.63;6.55;;;11.50;69.60;;;11.05;53.75;101721.00;5018383;28;20045;-77
2023/05/18 05:25:22;;;;;;;14.85;6.25;;;11.60;69.40;;;11.18;52.91;101738.25;5008781;28;20465;-77
2023/05/18 05:27:49;;;;;;;16.15;6.55;;;11.70;68.30;;;11.25;52.47;101728.47;5023186;28;20041;-77
2023/05/18 05:30:19;;;;;;;14.98;6.40;;;11.80;67.50;;;11.35;52.22;101729.03;5026708;28;20764;-79
2023/05/18 05:32:46;;;;;;;13.38;6.32;;;11.90;67.50;;;11.44;51.71;101722.56;5006297;28;20054;-78
2023/05/18 05:35:13;;;;;;;18.98;6.55;;;12.00;66.70;;;11.52;51.44;101729.66;5012913;28;20127;-81
2023/05/18 05:37:43;;;;;;;14.23;6.63;;;12.10;66.40;;;11.61;51.00;101731.19;5017994;28;20084;-81
2023/05/18 05:40:12;;;;;;;16.58;6.15;;;12.20;65.80;;;11.67;50.23;101735.81;5033997;28;20049;-81
2023/05/18 05:42:43;;;;;;;19.70;6.45;;;12.30;65.30;;;11.76;50.32;101724.00;5024565;28;20275;-81
2023/05/18 05:45:11;;;;;;;13.65;6.07;;;12.30;65.00;;;11.85;49.86;101719.38;5006891;28;20050;-82
2023/05/18 05:47:46;;;;;;;15.45;5.47;;;12.40;64.20;;;11.94;50.12;101726.28;5015370;28;20087;-82
2023/05/18 05:50:14;;;;;;;13.38;5.53;;;12.50;64.60;;;12.02;49.88;101726.16;5037421;28;20598;-83
2023/05/18 05:52:43;;;;;;;11.30;5.38;;;12.60;64.40;;;12.11;49.88;101726.88;5016505;28;20050;-83
2023/05/18 05:55:11;;;;;;;14.27;5.93;;;12.70;64.40;;;12.22;49.91;101726.38;5017106;28;20045;-83
2023/05/18 05:57:41;;;;;;;14.48;5.80;;;12.70;64.40;;;12.30;49.67;101734.28;5027962;28;20106;-83
2023/05/18 06:00:11;;;;;;;15.43;5.22;;;12.90;64.00;;;12.37;48.61;101737.81;5019127;28;20054;-83
2023/05/18 06:02:54;;;;;;;13.65;5.40;;;12.90;62.80;;;12.42;48.15;101737.25;5023714;28;20050;-83
2023/05/18 06:05:30;;;;;;;13.25;4.50;;;13.00;62.30;;;12.51;48.15;101738.78;5033081;28;20668;-83
2023/05/18 06:07:59;;;;;;;14.00;5.28;;;13.10;62.20;;;12.59;47.77;101738.66;5024046;28;20081;-83
2023/05/18 06:10:26;;;;;;;12.38;4.85;;;13.20;61.60;;;12.59;46.99;101729.75;5020555;28;20053;-84
2023/05/18 06:12:54;;;;;;;15.27;4.55;;;13.20;60.60;;;12.67;47.86;101740.34;5012980;28;20504;-84
2023/05/18 06:15:24;;;;;;;14.45;4.65;;;13.30;61.60;;;12.78;47.88;101737.13;5028785;28;20061;-83
2023/05/18 06:17:52;;;;;;;11.40;4.55;;;13.40;61.70;;;12.87;47.61;101733.28;5018812;28;20100;-83
2023/05/18 06:20:19;;;;;;;11.70;4.45;;;13.40;61.20;;;12.96;47.12;101731.28;5023516;28;20049;-83
2023/05/18 06:22:47;;;;;;;15.50;3.90;;;13.50;60.40;;;13.04;46.67;101735.69;5019604;28;20453;-83
2023/05/18 06:25:24;;;;;;;10.90;4.60;;;13.60;59.70;;;13.10;46.02;101732.22;5017619;28;20792;-83
2023/05/18 06:28:10;;;;;;;15.50;4.95;;;13.70;59.20;;;13.17;46.18;101741.09;5016580;28;20058;-83
2023/05/18 06:31:00;;;;;;;14.15;4.30;;;13.70;59.30;;;13.25;45.17;101743.66;5018143;28;20514;-84
2023/05/18 06:33:43;;;;;;;14.32;4.40;;;13.80;58.00;;;13.35;46.07;101740.63;5018495;28;20068;-82
2023/05/18 06:36:10;;;;;;;12.27;3.78;;;13.90;59.30;;;13.45;45.39;101740.25;5021267;28;20528;-83
2023/05/18 06:38:37;;;;;;;10.82;3.90;;;14.00;58.70;;;13.50;45.19;101745.84;5017971;28;20124;-84
2023/05/18 06:41:06;;;;;;;12.13;4.28;;;14.10;57.80;;;13.58;45.50;101748.38;5012300;28;20045;-83
2023/05/18 06:43:33;;;;;;;11.77;4.00;;;14.20;58.40;;;13.62;45.32;101741.59;5013381;28;20069;-83
2023/05/18 06:46:25;;;;;;;14.60;4.00;;;14.30;58.10;;;13.71;44.67;101748.41;5012264;28;20049;-83
2023/05/18 06:48:58;;;;;;;15.00;4.38;;;14.30;57.10;;;13.75;44.12;101744.31;5024309;28;20049;-83
2023/05/18 06:51:25;;;;;;;10.77;3.60;;;14.30;56.30;;;13.80;44.22;101751.75;5018810;28;20422;-83
2023/05/18 06:53:54;;;;;;;14.68;3.60;;;14.40;56.40;;;13.84;44.16;101742.28;5045230;28;20445;-81
2023/05/18 06:56:24;;;;;;;13.50;3.90;;;14.50;56.40;;;13.89;44.62;101737.13;5018944;28;20145;-82
2023/05/18 06:58:52;;;;;;;14.75;4.38;;;14.50;57.00;;;13.93;44.15;101743.75;5017190;28;20081;-82
2023/05/18 07:01:19;;;;;;;18.10;4.43;;;14.60;56.40;;;13.99;44.33;101742.13;5017153;28;20107;-81
2023/05/18 07:03:47;;;;;;;14.13;3.88;;;14.60;56.40;;;14.03;44.21;101748.72;5026412;28;20056;-81
2023/05/18 07:06:14;;;;;;;12.70;4.72;;;14.70;56.40;;;13.97;43.41;101750.38;5035087;28;20041;-81
2023/05/18 07:08:41;;;;;;;15.45;4.50;;;14.70;55.20;;;14.00;43.38;101744.59;5022711;28;20109;-81
2023/05/18 07:11:08;;;;;;;10.82;3.60;;;14.70;55.30;;;14.08;43.89;101738.22;5019079;28;20045;-82
2023/05/18 07:13:37;;;;;;;16.50;4.47;;;14.70;55.70;;;14.17;44.00;101740.50;5040172;28;20166;-82
2023/05/18 07:16:04;;;;;;;12.27;4.47;;;14.80;55.70;;;14.22;43.39;101747.94;5010946;28;20129;-82
2023/05/18 07:18:32;;;;;;;13.88;4.60;;;14.80;55.00;;;14.27;43.50;101747.34;5014645;28;20418;-81
2023/05/18 07:21:03;;;;;;;10.65;3.95;;;14.90;55.30;;;14.24;42.78;101745.06;5016434;28;20046;-82
2023/05/18 07:23:30;;;;;;;11.15;4.00;;;14.90;54.90;;;14.26;42.80;101741.16;5030886;28;20036;-81
2023/05/18 07:25:57;;;;;;;18.75;4.35;;;14.90;55.10;;;14.31;43.88;101744.03;5047281;28;20052;-82
2023/05/18 07:28:25;;;;;;;11.90;4.20;;;14.90;55.40;;;14.37;43.41;101743.22;5032777;28;20140;-82
2023/05/18 07:30:53;;;;;;;12.27;4.05;;;15.00;54.90;;;14.42;43.15;101748.78;5014495;28;20088;-81
2023/05/18 07:33:20;;;;;;;12.77;4.47;;;15.00;55.30;;;14.48;43.03;101754.41;5025902;28;20426;-81
2023/05/18 07:35:48;;;;;;;8.93;4.20;;;15.10;55.10;;;14.50;42.67;101747.81;5031012;28;20124;-81
2023/05/18 07:38:15;;;;;;;14.68;4.68;;;15.10;54.80;;;14.57;43.57;101748.63;5009238;28;20399;-81
2023/05/18 07:40:42;;;;;;;11.80;3.80;;;15.20;54.90;;;14.63;43.42;101741.59;5010196;28;20065;-81
2023/05/18 07:43:09;;;;;;;14.30;4.18;;;15.30;55.30;;;14.55;41.42;101745.34;5033380;28;20041;-81
2023/05/18 07:45:37;;;;;;;16.27;3.90;;;15.20;53.40;;;14.59;43.42;101751.09;5046632;28;20072;-82
2023/05/18 07:48:06;;;;;;;12.43;4.20;;;15.20;55.10;;;14.65;42.79;101743.06;5017662;28;20456;-82
2023/05/18 07:50:34;;;;;;;12.35;4.22;;;15.30;55.00;;;14.71;42.68;101737.91;5025827;28;20041;-81
2023/05/18 07:53:01;;;;;;;15.52;4.13;;;15.30;54.70;;;14.72;42.33;101729.63;5036101;28;20043;-82
2023/05/18 07:55:28;;;;;;;14.02;3.85;;;15.30;54.10;;;14.78;42.70;101738.72;5037619;28;20514;-81
2023/05/18 07:57:56;;;;;;;14.35;3.53;;;15.40;54.70;;;14.80;42.67;101742.84;5014989;28;20054;-81
2023/05/18 08:00:23;;;;;;;14.32;3.78;;;15.40;54.80;;;14.85;42.42;101747.59;5020198;28;20045;-83
2023/05/18 08:02:51;;;;;;;9.70;3.20;;;15.40;54.60;;;14.86;43.64;101739.31;5015809;28;20037;-83
2023/05/18 08:05:21;;;;;;;13.68;3.72;;;15.50;55.00;;;14.93;42.57;101729.41;5017699;28;20042;-80
2023/05/18 08:07:48;;;;;;;10.98;3.22;;;15.60;54.50;;;14.97;41.37;101728.97;5017544;28;20050;-83
2023/05/18 08:10:15;;;;;;;12.35;3.70;;;15.60;53.00;;;14.99;41.80;101735.00;5031410;28;20505;-89
2023/05/18 08:12:42;;;;;;;12.35;3.47;;;15.60;53.60;;;15.03;41.82;101730.81;5020636;28;20073;-80
2023/05/18 08:15:11;;;;;;;16.63;4.03;;;15.70;53.60;;;15.05;40.69;101734.16;5016173;28;20479;-80
2023/05/18 08:17:38;;;;;;;11.75;3.58;;;15.70;52.00;;;15.07;41.13;101738.25;5023957;28;20124;-85
2023/05/18 08:20:09;;;;;;;13.27;3.40;;;15.70;52.60;;;15.12;40.85;101735.75;5015078;28;20541;-84
2023/05/18 08:22:37;;;;;;;22.02;3.80;;;15.80;52.20;;;15.12;40.24;101729.56;5007417;28;20045;-84
2023/05/18 08:25:05;;;;;;;15.50;4.03;;;15.80;51.60;;;15.13;40.47;101729.38;5009612;28;20072;-84
2023/05/18 08:27:32;;;;;;;10.00;3.53;;;15.70;51.80;;;15.17;40.34;101729.75;5027829;28;20103;-84
2023/05/18 08:30:00;;;;;;;12.82;4.18;;;15.80;51.70;;;15.19;39.74;101717.78;5027754;28;20413;-84
2023/05/18 08:32:27;;;;;;;16.38;4.25;;;15.80;51.00;;;15.20;40.00;101715.91;5024972;28;20056;-84
2023/05/18 08:34:54;;;;;;;12.85;3.75;;;15.80;51.00;;;15.19;40.63;101720.47;5026145;28;20084;-84
2023/05/18 08:37:27;;;;;;;16.70;3.67;;;15.80;51.80;;;15.19;40.14;101723.16;5036677;28;20136;-84
2023/05/18 08:39:58;;;;;;;13.15;3.70;;;15.80;51.40;;;15.15;40.04;101726.47;5027515;28;20083;-84
2023/05/18 08:42:38;;;;;;;9.75;3.33;;;15.80;51.00;;;15.07;40.16;101718.63;5027772;28;20071;-84
2023/05/18 08:45:13;;;;;;;15.25;4.22;;;15.70;51.30;;;15.06;40.10;101719.66;5011168;28;20520;-84
2023/05/18 08:47:41;;;;;;;13.07;4.05;;;15.70;51.10;;;15.04;39.84;101716.38;5029795;28;20073;-84
2023/05/18 08:50:13;;;;;;;13.57;3.95;;;15.70;51.10;;;15.05;39.79;101710.78;5028064;28;20047;-84
2023/05/18 08:52:48;;;;;;;13.20;3.67;;;15.70;50.90;;;15.09;41.10;101709.34;5027852;28;20053;-84
2023/05/18 08:55:18;;;;;;;12.27;4.00;;;15.70;52.20;;;15.15;41.76;101707.66;5027994;28;20043;-84
2023/05/18 08:57:53;;;;;;;12.77;3.80;;;15.80;53.20;;;15.16;40.06;101709.31;5040206;28;20168;-84
2023/05/18 09:00:21;;;;;;;11.98;3.78;;;15.80;51.30;;;15.12;41.32;101714.25;5046634;28;20291;-84
2023/05/18 09:02:49;;;;;;;11.73;3.65;;;15.80;52.60;;;15.14;41.87;101706.84;5043336;28;20037;-84
2023/05/18 09:05:17;;;;;;;14.10;4.45;;;15.80;53.20;;;15.11;40.07;101706.41;5028533;28;20497;-84
2023/05/18 09:07:46;;;;;;;11.60;3.75;;;15.80;51.00;;;15.06;40.84;101703.53;5039519;28;20679;-84
2023/05/18 09:10:15;;;;;;;14.18;4.25;;;15.70;52.20;;;15.10;41.51;101704.78;5048518;28;20132;-84
2023/05/18 09:12:45;;;;;;;13.38;4.03;;;15.70;53.20;;;15.10;40.94;101692.16;5047284;28;20120;-84
2023/05/18 09:15:16;;;;;;;14.13;3.60;;;15.80;52.10;;;15.11;40.66;101706.41;5045336;28;20107;-84
2023/05/18 09:17:43;;;;;;;11.63;3.47;;;15.80;51.60;;;15.07;40.68;101706.00;5039787;28;20044;-84
2023/05/18 09:20:11;;;;;;;12.73;4.00;;;15.80;51.80;;;15.05;40.03;101699.22;5047851;28;20049;-84
2023/05/18 09:22:39;;;;;;;11.68;4.00;;;15.70;51.00;;;15.02;41.40;101692.38;5047664;28;20053;-84
2023/05/18 09:25:09;;;;;;;19.05;4.32;;;15.70;53.00;;;15.00;40.64;101699.84;5046135;28;20049;-83
2023/05/18 09:27:38;;;;;;;18.02;4.50;;;15.70;51.60;;;15.01;40.20;101706.84;5043917;28;20050;-84
2023/05/18 09:30:11;;;;;;;10.55;4.22;;;15.70;51.10;;;15.01;40.35;101703.34;5043906;28;20099;-85
2023/05/18 09:32:38;;;;;;;15.48;3.85;;;15.70;51.40;;;14.96;40.21;101700.47;5047099;28;20095;-84
2023/05/18 09:35:08;;;;;;;14.10;4.03;;;15.60;51.00;;;14.97;40.16;101691.38;5043107;28;20053;-84
2023/05/18 09:37:35;;;;;;;10.90;3.80;;;15.60;50.90;;;14.95;40.42;101699.66;5031433;28;20042;-84
2023/05/18 09:40:05;;;;;;;12.48;3.97;;;15.60;51.30;;;14.90;40.30;101694.91;5044046;28;20048;-84
2023/05/18 09:42:37;;;;;;;12.65;3.92;;;15.60;51.30;;;14.92;40.60;101692.00;5050767;28;20494;-84
2023/05/18 09:45:15;;;;;;;14.60;4.18;;;15.60;51.80;;;14.93;40.89;101691.81;5010935;28;20042;-84
2023/05/18 09:47:43;;;;;;;12.27;4.13;;;15.60;51.80;;;14.90;40.41;101689.53;5039355;28;20046;-84
2023/05/18 09:50:10;;;;;;;16.27;3.95;;;15.60;51.50;;;14.83;39.92;101695.94;5048590;28;20164;-84
2023/05/18 09:52:42;;;;;;;15.10;4.47;;;15.50;51.00;;;14.84;40.24;101697.59;5045752;28;20068;-84
2023/05/18 09:55:10;;;;;;;11.35;4.20;;;15.50;51.30;;;14.86;40.66;101698.22;5019377;28;20052;-83
2023/05/18 09:57:44;;;;;;;15.13;3.88;;;15.50;51.60;;;14.90;42.00;101700.28;5051629;28;20078;-84
2023/05/18 10:00:14;;;;;;;12.10;4.10;;;15.50;53.50;;;14.93;41.26;101688.28;5040984;28;20045;-84
2023/05/18 10:02:47;;;;;;;11.73;3.95;;;15.60;52.20;;;14.91;40.19;101706.47;5040528;28;20076;-84
2023/05/18 10:05:21;;;;;;;10.63;3.63;;;15.50;51.20;;;14.94;41.81;101692.63;5031054;28;20053;-84
2023/05/18 10:07:51;;;;;;;12.43;3.63;;;15.60;53.10;;;14.89;41.65;101689.75;5030212;28;20445;-84
2023/05/18 10:10:19;;;;;;;12.05;4.55;;;15.60;53.00;;;14.85;40.54;101693.88;5027706;28;20041;-84
2023/05/18 10:12:50;;;;;;;15.23;4.10;;;15.50;51.50;;;14.81;40.67;101692.66;5043904;28;20041;-84
2023/05/18 10:15:21;;;;;;;13.82;4.10;;;15.50;51.60;;;14.85;41.59;101686.66;5050166;28;20477;-84
2023/05/18 10:17:49;;;;;;;10.63;4.32;;;15.50;52.70;;;14.93;42.73;101688.28;5051019;28;20124;-84
2023/05/18 10:20:20;;;;;;;13.32;4.70;;;15.60;54.30;;;15.01;42.20;101684.53;5036820;28;20131;-84